sensor_id;sensor_type;location;lat;lon;timestamp;pressure;altitude;pressure_sealevel;temperature;humidity
79370;BME280;68835;53.096;17.932;2023-04-24T00:01:19;99835.05;;;12.90;73.24
79370;BME280;68835;53.096;17.932;2023-04-24T00:03:46;99835.05;;;12.90;73.00
79370;BME280;68835;53.096;17.932;2023-04-24T00:06:13;99836.93;;;12.93;72.90
79370;BME280;68835;53.096;17.932;2023-04-24T00:08:43;99833.51;;;13.00;72.87
79370;BME280;68835;53.096;17.932;2023-04-24T00:11:11;99829.75;;;13.05;72.96
79370;BME280;68835;53.096;17.932;2023-04-24T00:13:38;99828.46;;;13.08;72.59
79370;BME280;68835;53.096;17.932;2023-04-24T00:16:05;99824.96;;;13.07;72.70
79370;BME280;68835;53.096;17.932;2023-04-24T00:18:32;99825.64;;;13.09;72.29
79370;BME280;68835;53.096;17.932;2023-04-24T00:20:59;99827.03;;;13.10;72.67
79370;BME280;68835;53.096;17.932;2023-04-24T00:23:26;99830.20;;;13.09;72.67
79370;BME280;68835;53.096;17.932;2023-04-24T00:25:54;99827.79;;;13.07;73.01
79370;BME280;68835;53.096;17.932;2023-04-24T00:28:21;99818.50;;;13.05;73.00
79370;BME280;68835;53.096;17.932;2023-04-24T00:30:48;99817.27;;;13.06;73.07
79370;BME280;68835;53.096;17.932;2023-04-24T00:33:15;99812.02;;;13.04;72.84
79370;BME280;68835;53.096;17.932;2023-04-24T00:35:43;99810.75;;;12.95;72.89
79370;BME280;68835;53.096;17.932;2023-04-24T00:38:11;99808.39;;;12.88;72.56
79370;BME280;68835;53.096;17.932;2023-04-24T00:40:38;99799.98;;;12.87;72.50
79370;BME280;68835;53.096;17.932;2023-04-24T00:43:05;99797.12;;;12.90;73.17
79370;BME280;68835;53.096;17.932;2023-04-24T00:45:33;99800.48;;;12.88;72.86
79370;BME280;68835;53.096;17.932;2023-04-24T00:48:01;99800.00;;;12.86;72.61
79370;BME280;68835;53.096;17.932;2023-04-24T00:50:29;99803.34;;;12.85;72.87
79370;BME280;68835;53.096;17.932;2023-04-24T00:52:57;99800.25;;;12.81;72.68
79370;BME280;68835;53.096;17.932;2023-04-24T00:55:25;99800.11;;;12.78;72.67
79370;BME280;68835;53.096;17.932;2023-04-24T00:57:54;99800.09;;;12.79;72.67
79370;BME280;68835;53.096;17.932;2023-04-24T01:00:22;99796.33;;;12.84;72.59
79370;BME280;68835;53.096;17.932;2023-04-24T01:02:49;99794.27;;;12.82;73.08
79370;BME280;68835;53.096;17.932;2023-04-24T01:05:19;99797.61;;;12.81;72.84
79370;BME280;68835;53.096;17.932;2023-04-24T01:07:46;99794.79;;;12.81;73.05
79370;BME280;68835;53.096;17.932;2023-04-24T01:10:16;99792.44;;;12.73;73.55
79370;BME280;68835;53.096;17.932;2023-04-24T01:12:46;99790.98;;;12.66;73.58
79370;BME280;68835;53.096;17.932;2023-04-24T01:15:13;99791.20;;;12.63;73.26
79370;BME280;68835;53.096;17.932;2023-04-24T01:17:42;99784.50;;;12.64;73.26
79370;BME280;68835;53.096;17.932;2023-04-24T01:20:10;99777.84;;;12.63;73.59
79370;BME280;68835;53.096;17.932;2023-04-24T01:22:37;99775.92;;;12.63;72.99
79370;BME280;68835;53.096;17.932;2023-04-24T01:25:05;99778.16;;;12.66;72.98
79370;BME280;68835;53.096;17.932;2023-04-24T01:27:32;99779.88;;;12.68;72.99
79370;BME280;68835;53.096;17.932;2023-04-24T01:29:59;99778.86;;;12.66;72.66
79370;BME280;68835;53.096;17.932;2023-04-24T01:32:27;99776.73;;;12.68;73.44
79370;BME280;68835;53.096;17.932;2023-04-24T01:34:55;99774.27;;;12.68;73.09
79370;BME280;68835;53.096;17.932;2023-04-24T01:37:22;99775.48;;;12.69;73.10
79370;BME280;68835;53.096;17.932;2023-04-24T01:39:53;99774.29;;;12.67;72.69
79370;BME280;68835;53.096;17.932;2023-04-24T01:42:20;99771.48;;;12.66;72.90
79370;BME280;68835;53.096;17.932;2023-04-24T01:44:47;99772.36;;;12.67;73.43
79370;BME280;68835;53.096;17.932;2023-04-24T01:47:15;99770.77;;;12.67;73.01
79370;BME280;68835;53.096;17.932;2023-04-24T01:49:42;99770.40;;;12.68;72.94
79370;BME280;68835;53.096;17.932;2023-04-24T01:52:09;99769.20;;;12.67;73.01
79370;BME280;68835;53.096;17.932;2023-04-24T01:54:36;99771.83;;;12.66;73.06
79370;BME280;68835;53.096;17.932;2023-04-24T01:57:03;99770.45;;;12.65;73.56
79370;BME280;68835;53.096;17.932;2023-04-24T01:59:32;99773.48;;;12.62;73.31
79370;BME280;68835;53.096;17.932;2023-04-24T02:02:00;99772.63;;;12.60;73.29
79370;BME280;68835;53.096;17.932;2023-04-24T02:04:27;99770.48;;;12.63;73.02
79370;BME280;68835;53.096;17.932;2023-04-24T02:06:54;99769.77;;;12.64;73.13
79370;BME280;68835;53.096;17.932;2023-04-24T02:09:21;99767.45;;;12.66;72.94
79370;BME280;68835;53.096;17.932;2023-04-24T02:11:49;99769.38;;;12.66;73.37
79370;BME280;68835;53.096;17.932;2023-04-24T02:14:16;99768.30;;;12.68;72.96
79370;BME280;68835;53.096;17.932;2023-04-24T02:16:46;99758.81;;;12.69;73.17
79370;BME280;68835;53.096;17.932;2023-04-24T02:19:13;99751.60;;;12.70;72.86
79370;BME280;68835;53.096;17.932;2023-04-24T02:21:41;99748.78;;;12.71;72.96
79370;BME280;68835;53.096;17.932;2023-04-24T02:24:09;99742.60;;;12.73;72.79
79370;BME280;68835;53.096;17.932;2023-04-24T02:26:36;99736.98;;;12.74;72.66
79370;BME280;68835;53.096;17.932;2023-04-24T02:29:03;99743.27;;;12.75;72.72
79370;BME280;68835;53.096;17.932;2023-04-24T02:31:30;99741.83;;;12.77;72.93
79370;BME280;68835;53.096;17.932;2023-04-24T02:33:57;99745.87;;;12.78;72.86
79370;BME280;68835;53.096;17.932;2023-04-24T02:36:25;99746.64;;;12.74;73.04
79370;BME280;68835;53.096;17.932;2023-04-24T02:38:52;99738.27;;;12.68;72.93
79370;BME280;68835;53.096;17.932;2023-04-24T02:41:19;99735.52;;;12.65;73.34
79370;BME280;68835;53.096;17.932;2023-04-24T02:43:46;99728.52;;;12.64;73.32
79370;BME280;68835;53.096;17.932;2023-04-24T02:46:14;99724.10;;;12.66;73.19
79370;BME280;68835;53.096;17.932;2023-04-24T02:48:41;99721.66;;;12.65;73.42
79370;BME280;68835;53.096;17.932;2023-04-24T02:51:08;99722.23;;;12.62;73.18
79370;BME280;68835;53.096;17.932;2023-04-24T02:53:35;99719.08;;;12.62;73.68
79370;BME280;68835;53.096;17.932;2023-04-24T02:56:02;99726.09;;;12.62;73.38
79370;BME280;68835;53.096;17.932;2023-04-24T02:58:31;99728.02;;;12.62;73.56
79370;BME280;68835;53.096;17.932;2023-04-24T03:00:59;99729.21;;;12.65;73.81
79370;BME280;68835;53.096;17.932;2023-04-24T03:03:27;99730.75;;;12.67;73.63
79370;BME280;68835;53.096;17.932;2023-04-24T03:05:54;99734.77;;;12.69;73.70
79370;BME280;68835;53.096;17.932;2023-04-24T03:08:22;99731.93;;;12.70;73.58
79370;BME280;68835;53.096;17.932;2023-04-24T03:10:49;99733.61;;;12.76;73.72
79370;BME280;68835;53.096;17.932;2023-04-24T03:13:16;99735.64;;;12.81;74.05
79370;BME280;68835;53.096;17.932;2023-04-24T03:15:44;99737.40;;;12.81;74.17
79370;BME280;68835;53.096;17.932;2023-04-24T03:18:11;99743.48;;;12.72;74.58
79370;BME280;68835;53.096;17.932;2023-04-24T03:20:39;99746.27;;;12.63;74.36
79370;BME280;68835;53.096;17.932;2023-04-24T03:23:06;99747.08;;;12.54;74.90
79370;BME280;68835;53.096;17.932;2023-04-24T03:25:33;99746.11;;;12.47;74.61
79370;BME280;68835;53.096;17.932;2023-04-24T03:28:01;99748.92;;;12.47;75.04
79370;BME280;68835;53.096;17.932;2023-04-24T03:30:43;99753.08;;;12.52;74.98
79370;BME280;68835;53.096;17.932;2023-04-24T03:33:11;99755.16;;;12.53;75.22
79370;BME280;68835;53.096;17.932;2023-04-24T03:35:43;99753.42;;;12.52;74.82
79370;BME280;68835;53.096;17.932;2023-04-24T03:38:10;99755.49;;;12.56;75.09
79370;BME280;68835;53.096;17.932;2023-04-24T03:40:56;99749.83;;;12.58;75.22
79370;BME280;68835;53.096;17.932;2023-04-24T03:43:56;99743.71;;;12.57;75.03
79370;BME280;68835;53.096;17.932;2023-04-24T03:46:23;99743.71;;;12.57;75.30
79370;BME280;68835;53.096;17.932;2023-04-24T03:48:58;99743.56;;;12.56;75.59
79370;BME280;68835;53.096;17.932;2023-04-24T03:51:29;99742.45;;;12.59;75.61
79370;BME280;68835;53.096;17.932;2023-04-24T03:54:02;99729.74;;;12.64;75.26
79370;BME280;68835;53.096;17.932;2023-04-24T03:56:30;99725.47;;;12.69;75.40
79370;BME280;68835;53.096;17.932;2023-04-24T03:58:57;99719.61;;;12.72;75.33
79370;BME280;68835;53.096;17.932;2023-04-24T04:01:25;99716.08;;;12.74;75.42
79370;BME280;68835;53.096;17.932;2023-04-24T04:03:59;99709.95;;;12.74;75.80
79370;BME280;68835;53.096;17.932;2023-04-24T04:06:27;99713.94;;;12.76;76.02
79370;BME280;68835;53.096;17.932;2023-04-24T04:08:56;99712.15;;;12.79;75.42
79370;BME280;68835;53.096;17.932;2023-04-24T04:11:24;99709.84;;;12.80;75.93
79370;BME280;68835;53.096;17.932;2023-04-24T04:13:51;99711.36;;;12.84;75.46
79370;BME280;68835;53.096;17.932;2023-04-24T04:16:21;99708.86;;;12.86;75.75
79370;BME280;68835;53.096;17.932;2023-04-24T04:18:49;99711.01;;;12.84;75.97
79370;BME280;68835;53.096;17.932;2023-04-24T04:21:17;99705.60;;;12.82;76.12
79370;BME280;68835;53.096;17.932;2023-04-24T04:23:44;99706.66;;;12.82;76.03
79370;BME280;68835;53.096;17.932;2023-04-24T04:26:21;99700.43;;;12.86;76.22
79370;BME280;68835;53.096;17.932;2023-04-24T04:29:04;99698.52;;;12.87;76.49
79370;BME280;68835;53.096;17.932;2023-04-24T04:31:31;99702.08;;;12.82;77.01
79370;BME280;68835;53.096;17.932;2023-04-24T04:34:01;99704.23;;;12.68;76.78
79370;BME280;68835;53.096;17.932;2023-04-24T04:36:29;99704.86;;;12.61;77.58
79370;BME280;68835;53.096;17.932;2023-04-24T04:39:02;99704.92;;;12.57;77.35
79370;BME280;68835;53.096;17.932;2023-04-24T04:41:44;99702.23;;;12.61;77.02
79370;BME280;68835;53.096;17.932;2023-04-24T04:44:13;99700.45;;;12.76;77.04
79370;BME280;68835;53.096;17.932;2023-04-24T04:46:41;99697.69;;;12.83;76.94
79370;BME280;68835;53.096;17.932;2023-04-24T04:49:19;99691.75;;;12.91;76.66
79370;BME280;68835;53.096;17.932;2023-04-24T04:51:48;99688.39;;;13.03;76.72
79370;BME280;68835;53.096;17.932;2023-04-24T04:54:16;99685.77;;;13.13;76.72
79370;BME280;68835;53.096;17.932;2023-04-24T04:56:43;99689.11;;;13.24;76.58
79370;BME280;68835;53.096;17.932;2023-04-24T04:59:11;99687.20;;;13.34;76.46
79370;BME280;68835;53.096;17.932;2023-04-24T05:01:39;99683.14;;;13.44;76.27
79370;BME280;68835;53.096;17.932;2023-04-24T05:04:07;99681.39;;;13.52;76.23
79370;BME280;68835;53.096;17.932;2023-04-24T05:06:34;99678.73;;;13.64;76.17
79370;BME280;68835;53.096;17.932;2023-04-24T05:09:02;99671.72;;;13.71;75.73
79370;BME280;68835;53.096;17.932;2023-04-24T05:11:35;99673.02;;;13.76;75.99
79370;BME280;68835;53.096;17.932;2023-04-24T05:14:02;99673.53;;;13.77;75.59
79370;BME280;68835;53.096;17.932;2023-04-24T05:16:35;99673.88;;;13.77;75.93
79370;BME280;68835;53.096;17.932;2023-04-24T05:19:05;99673.47;;;13.80;76.20
79370;BME280;68835;53.096;17.932;2023-04-24T05:21:36;99674.59;;;13.86;75.88
79370;BME280;68835;53.096;17.932;2023-04-24T05:24:03;99676.53;;;13.93;75.99
79370;BME280;68835;53.096;17.932;2023-04-24T05:26:58;99682.90;;;14.00;76.27
79370;BME280;68835;53.096;17.932;2023-04-24T05:29:31;99678.70;;;14.07;75.97
79370;BME280;68835;53.096;17.932;2023-04-24T05:32:00;99685.21;;;14.15;76.01
79370;BME280;68835;53.096;17.932;2023-04-24T05:34:28;99688.61;;;14.21;75.68
79370;BME280;68835;53.096;17.932;2023-04-24T05:36:56;99684.59;;;14.28;76.01
79370;BME280;68835;53.096;17.932;2023-04-24T05:39:23;99673.48;;;14.29;75.86
79370;BME280;68835;53.096;17.932;2023-04-24T05:41:52;99678.97;;;14.35;75.86
79370;BME280;68835;53.096;17.932;2023-04-24T05:44:19;99675.21;;;14.38;75.79
79370;BME280;68835;53.096;17.932;2023-04-24T05:46:46;99674.30;;;14.39;75.47
79370;BME280;68835;53.096;17.932;2023-04-24T05:49:13;99673.69;;;14.42;75.62
79370;BME280;68835;53.096;17.932;2023-04-24T05:51:41;99673.79;;;14.47;75.68
79370;BME280;68835;53.096;17.932;2023-04-24T05:54:09;99675.78;;;14.53;75.50
79370;BME280;68835;53.096;17.932;2023-04-24T05:56:39;99672.67;;;14.58;75.63
79370;BME280;68835;53.096;17.932;2023-04-24T05:59:08;99680.40;;;14.66;75.40
79370;BME280;68835;53.096;17.932;2023-04-24T06:01:36;99683.10;;;14.71;75.20
79370;BME280;68835;53.096;17.932;2023-04-24T06:04:12;99681.06;;;14.76;74.95
79370;BME280;68835;53.096;17.932;2023-04-24T06:06:40;99683.97;;;14.79;74.94
79370;BME280;68835;53.096;17.932;2023-04-24T06:09:08;99679.38;;;14.87;74.88
79370;BME280;68835;53.096;17.932;2023-04-24T06:11:42;99678.01;;;14.92;74.80
79370;BME280;68835;53.096;17.932;2023-04-24T06:14:10;99670.20;;;14.95;74.57
79370;BME280;68835;53.096;17.932;2023-04-24T06:16:37;99667.05;;;15.01;74.47
79370;BME280;68835;53.096;17.932;2023-04-24T06:19:13;99666.89;;;15.14;74.48
79370;BME280;68835;53.096;17.932;2023-04-24T06:21:40;99665.11;;;15.28;74.05
79370;BME280;68835;53.096;17.932;2023-04-24T06:24:07;99663.64;;;15.37;73.50
79370;BME280;68835;53.096;17.932;2023-04-24T06:26:36;99657.80;;;15.38;73.56
79370;BME280;68835;53.096;17.932;2023-04-24T06:29:03;99660.36;;;15.41;73.14
79370;BME280;68835;53.096;17.932;2023-04-24T06:31:30;99659.23;;;15.37;72.42
79370;BME280;68835;53.096;17.932;2023-04-24T06:34:02;99657.64;;;15.31;72.67
79370;BME280;68835;53.096;17.932;2023-04-24T06:36:30;99652.24;;;15.22;72.21
79370;BME280;68835;53.096;17.932;2023-04-24T06:38:58;99650.35;;;15.13;72.35
79370;BME280;68835;53.096;17.932;2023-04-24T06:41:25;99648.35;;;15.15;72.35
79370;BME280;68835;53.096;17.932;2023-04-24T06:43:52;99645.59;;;15.20;71.97
79370;BME280;68835;53.096;17.932;2023-04-24T06:46:19;99646.89;;;15.24;71.89
79370;BME280;68835;53.096;17.932;2023-04-24T06:48:49;99645.71;;;15.28;71.76
79370;BME280;68835;53.096;17.932;2023-04-24T06:51:17;99644.29;;;15.35;71.55
79370;BME280;68835;53.096;17.932;2023-04-24T06:53:45;99645.69;;;15.42;71.60
79370;BME280;68835;53.096;17.932;2023-04-24T06:56:12;99640.61;;;15.54;71.20
79370;BME280;68835;53.096;17.932;2023-04-24T06:58:39;99641.30;;;15.61;70.71
79370;BME280;68835;53.096;17.932;2023-04-24T07:01:07;99641.16;;;15.67;70.35
79370;BME280;68835;53.096;17.932;2023-04-24T07:03:34;99637.55;;;15.75;69.79
79370;BME280;68835;53.096;17.932;2023-04-24T07:06:02;99641.98;;;15.81;68.97
79370;BME280;68835;53.096;17.932;2023-04-24T07:08:30;99639.34;;;15.81;69.00
79370;BME280;68835;53.096;17.932;2023-04-24T07:10:57;99637.33;;;15.84;68.81
79370;BME280;68835;53.096;17.932;2023-04-24T07:13:24;99639.24;;;15.84;67.86
79370;BME280;68835;53.096;17.932;2023-04-24T07:15:54;99634.80;;;15.85;68.11
79370;BME280;68835;53.096;17.932;2023-04-24T07:18:23;99639.00;;;15.86;66.98
79370;BME280;68835;53.096;17.932;2023-04-24T07:20:50;99642.11;;;15.88;67.01
79370;BME280;68835;53.096;17.932;2023-04-24T07:23:18;99639.55;;;15.92;65.55
79370;BME280;68835;53.096;17.932;2023-04-24T07:25:45;99641.23;;;15.95;65.93
79370;BME280;68835;53.096;17.932;2023-04-24T07:28:12;99636.85;;;15.99;66.52
79370;BME280;68835;53.096;17.932;2023-04-24T07:30:39;99632.24;;;16.06;64.92
79370;BME280;68835;53.096;17.932;2023-04-24T07:33:07;99628.42;;;16.10;64.17
79370;BME280;68835;53.096;17.932;2023-04-24T07:35:34;99629.54;;;16.20;65.14
79370;BME280;68835;53.096;17.932;2023-04-24T07:38:02;99628.20;;;16.39;64.16
79370;BME280;68835;53.096;17.932;2023-04-24T07:40:29;99629.09;;;16.56;63.94
79370;BME280;68835;53.096;17.932;2023-04-24T07:42:56;99628.30;;;16.64;62.18
79370;BME280;68835;53.096;17.932;2023-04-24T07:45:23;99625.83;;;16.70;63.15
79370;BME280;68835;53.096;17.932;2023-04-24T07:47:52;99630.48;;;16.79;61.52
79370;BME280;68835;53.096;17.932;2023-04-24T07:50:19;99634.09;;;16.82;61.02
79370;BME280;68835;53.096;17.932;2023-04-24T07:52:47;99635.89;;;16.81;60.51
79370;BME280;68835;53.096;17.932;2023-04-24T07:55:14;99631.72;;;16.84;60.84
79370;BME280;68835;53.096;17.932;2023-04-24T07:57:41;99630.30;;;16.90;60.09
79370;BME280;68835;53.096;17.932;2023-04-24T08:00:09;99633.89;;;16.94;60.91
79370;BME280;68835;53.096;17.932;2023-04-24T08:02:39;99632.06;;;17.00;60.05
79370;BME280;68835;53.096;17.932;2023-04-24T08:05:07;99634.90;;;17.10;60.36
79370;BME280;68835;53.096;17.932;2023-04-24T08:07:35;99638.73;;;17.22;60.25
79370;BME280;68835;53.096;17.932;2023-04-24T08:10:02;99634.13;;;17.38;59.21
79370;BME280;68835;53.096;17.932;2023-04-24T08:12:30;99632.61;;;17.55;58.92
79370;BME280;68835;53.096;17.932;2023-04-24T08:14:58;99636.20;;;17.68;56.85
79370;BME280;68835;53.096;17.932;2023-04-24T08:17:26;99631.98;;;17.77;56.72
79370;BME280;68835;53.096;17.932;2023-04-24T08:19:53;99636.73;;;17.98;56.23
79370;BME280;68835;53.096;17.932;2023-04-24T08:22:28;99631.50;;;18.05;55.19
79370;BME280;68835;53.096;17.932;2023-04-24T08:24:55;99630.71;;;18.06;55.33
79370;BME280;68835;53.096;17.932;2023-04-24T08:27:23;99628.38;;;18.07;54.17
79370;BME280;68835;53.096;17.932;2023-04-24T08:29:53;99635.46;;;17.98;53.44
79370;BME280;68835;53.096;17.932;2023-04-24T08:32:21;99626.42;;;17.90;54.21
79370;BME280;68835;53.096;17.932;2023-04-24T08:34:48;99622.98;;;17.92;53.92
79370;BME280;68835;53.096;17.932;2023-04-24T08:37:16;99623.27;;;17.93;54.39
79370;BME280;68835;53.096;17.932;2023-04-24T08:39:43;99618.70;;;17.97;54.14
79370;BME280;68835;53.096;17.932;2023-04-24T08:42:11;99619.55;;;18.02;54.37
79370;BME280;68835;53.096;17.932;2023-04-24T08:44:40;99619.27;;;18.10;53.55
79370;BME280;68835;53.096;17.932;2023-04-24T08:47:07;99617.15;;;18.14;53.70
79370;BME280;68835;53.096;17.932;2023-04-24T08:49:36;99622.02;;;18.21;53.33
79370;BME280;68835;53.096;17.932;2023-04-24T08:52:22;99621.52;;;18.25;52.41
79370;BME280;68835;53.096;17.932;2023-04-24T08:54:50;99618.15;;;18.29;51.74
79370;BME280;68835;53.096;17.932;2023-04-24T08:57:19;99619.61;;;18.32;52.92
79370;BME280;68835;53.096;17.932;2023-04-24T08:59:47;99616.56;;;18.38;52.75
79370;BME280;68835;53.096;17.932;2023-04-24T09:02:14;99618.77;;;18.36;52.75
79370;BME280;68835;53.096;17.932;2023-04-24T09:04:43;99619.95;;;18.37;52.65
79370;BME280;68835;53.096;17.932;2023-04-24T09:07:12;99622.81;;;18.37;52.82
79370;BME280;68835;53.096;17.932;2023-04-24T09:09:42;99624.02;;;18.42;52.87
79370;BME280;68835;53.096;17.932;2023-04-24T09:12:11;99627.17;;;18.43;52.83
79370;BME280;68835;53.096;17.932;2023-04-24T09:14:38;99628.04;;;18.39;51.98
79370;BME280;68835;53.096;17.932;2023-04-24T09:17:09;99629.88;;;18.42;52.64
79370;BME280;68835;53.096;17.932;2023-04-24T09:19:36;99627.77;;;18.50;52.66
79370;BME280;68835;53.096;17.932;2023-04-24T09:22:07;99625.95;;;18.55;52.65
79370;BME280;68835;53.096;17.932;2023-04-24T09:24:39;99625.65;;;18.67;52.40
79370;BME280;68835;53.096;17.932;2023-04-24T09:27:06;99626.55;;;18.72;51.97
79370;BME280;68835;53.096;17.932;2023-04-24T09:29:37;99623.44;;;18.70;51.89
79370;BME280;68835;53.096;17.932;2023-04-24T09:32:19;99618.86;;;18.78;52.31
79370;BME280;68835;53.096;17.932;2023-04-24T09:37:46;99613.38;;;19.03;52.33
79370;BME280;68835;53.096;17.932;2023-04-24T09:40:19;99614.08;;;19.11;51.90
79370;BME280;68835;53.096;17.932;2023-04-24T09:42:54;99614.09;;;19.11;51.64
79370;BME280;68835;53.096;17.932;2023-04-24T09:45:27;99607.63;;;19.09;50.89
79370;BME280;68835;53.096;17.932;2023-04-24T09:47:56;99606.98;;;19.11;51.14
79370;BME280;68835;53.096;17.932;2023-04-24T09:50:23;99606.06;;;19.12;51.13
79370;BME280;68835;53.096;17.932;2023-04-24T09:53:04;99605.84;;;19.13;50.85
79370;BME280;68835;53.096;17.932;2023-04-24T09:55:32;99606.98;;;19.15;50.99
79370;BME280;68835;53.096;17.932;2023-04-24T09:58:01;99607.55;;;19.10;50.46
79370;BME280;68835;53.096;17.932;2023-04-24T10:00:30;99603.90;;;19.04;50.43
79370;BME280;68835;53.096;17.932;2023-04-24T10:03:02;99598.91;;;19.05;50.50
79370;BME280;68835;53.096;17.932;2023-04-24T10:05:36;99597.36;;;19.12;50.53
79370;BME280;68835;53.096;17.932;2023-04-24T10:08:05;99589.83;;;19.22;50.67
79370;BME280;68835;53.096;17.932;2023-04-24T10:10:35;99589.87;;;19.37;50.37
79370;BME280;68835;53.096;17.932;2023-04-24T10:13:03;99581.52;;;19.53;49.92
79370;BME280;68835;53.096;17.932;2023-04-24T10:15:32;99568.95;;;19.77;50.21
79370;BME280;68835;53.096;17.932;2023-04-24T10:18:01;99567.61;;;20.16;49.55
79370;BME280;68835;53.096;17.932;2023-04-24T10:20:34;99574.84;;;20.58;48.66
79370;BME280;68835;53.096;17.932;2023-04-24T10:23:02;99578.63;;;20.57;47.74
79370;BME280;68835;53.096;17.932;2023-04-24T10:25:31;99577.66;;;20.62;48.04
79370;BME280;68835;53.096;17.932;2023-04-24T10:28:00;99576.86;;;20.63;47.37
79370;BME280;68835;53.096;17.932;2023-04-24T10:30:33;99578.30;;;20.70;47.32
79370;BME280;68835;53.096;17.932;2023-04-24T10:33:06;99585.80;;;20.77;46.22
79370;BME280;68835;53.096;17.932;2023-04-24T10:35:38;99591.23;;;20.82;45.39
79370;BME280;68835;53.096;17.932;2023-04-24T10:38:11;99582.29;;;20.83;45.80
79370;BME280;68835;53.096;17.932;2023-04-24T10:40:39;99580.16;;;21.48;45.64
79370;BME280;68835;53.096;17.932;2023-04-24T10:43:08;99581.34;;;22.40;45.52
79370;BME280;68835;53.096;17.932;2023-04-24T10:45:38;99586.23;;;23.41;43.07
79370;BME280;68835;53.096;17.932;2023-04-24T10:48:07;99583.38;;;24.04;41.48
79370;BME280;68835;53.096;17.932;2023-04-24T10:50:52;99588.86;;;24.24;40.42
79370;BME280;68835;53.096;17.932;2023-04-24T10:53:21;99583.61;;;24.09;40.53
79370;BME280;68835;53.096;17.932;2023-04-24T10:55:57;99586.60;;;23.90;40.80
79370;BME280;68835;53.096;17.932;2023-04-24T10:58:49;99590.91;;;23.73;40.67
79370;BME280;68835;53.096;17.932;2023-04-24T11:01:30;99591.80;;;23.46;40.45
79370;BME280;68835;53.096;17.932;2023-04-24T11:04:02;99593.48;;;23.13;41.59
79370;BME280;68835;53.096;17.932;2023-04-24T11:06:31;99592.90;;;22.96;41.72
79370;BME280;68835;53.096;17.932;2023-04-24T11:09:09;99590.02;;;22.81;42.21
79370;BME280;68835;53.096;17.932;2023-04-24T11:11:37;99592.14;;;23.11;42.40
79370;BME280;68835;53.096;17.932;2023-04-24T11:14:07;99586.63;;;24.31;41.14
79370;BME280;68835;53.096;17.932;2023-04-24T11:27:18;99601.36;;;23.77;40.51
79370;BME280;68835;53.096;17.932;2023-04-24T11:32:37;99605.73;;;23.23;40.75
79370;BME280;68835;53.096;17.932;2023-04-24T11:37:47;99598.95;;;22.44;41.50
79370;BME280;68835;53.096;17.932;2023-04-24T11:40:19;99602.11;;;22.51;41.68
79370;BME280;68835;53.096;17.932;2023-04-24T11:42:51;99596.07;;;22.78;41.38
79370;BME280;68835;53.096;17.932;2023-04-24T11:45:27;99604.13;;;23.05;40.07
79370;BME280;68835;53.096;17.932;2023-04-24T11:47:54;99603.33;;;22.85;41.19
79370;BME280;68835;53.096;17.932;2023-04-24T11:50:23;99599.21;;;22.48;41.43
79370;BME280;68835;53.096;17.932;2023-04-24T11:52:52;99593.95;;;22.43;41.35
79370;BME280;68835;53.096;17.932;2023-04-24T11:57:50;99596.25;;;22.38;42.57
79370;BME280;68835;53.096;17.932;2023-04-24T12:00:27;99597.08;;;22.73;42.31
79370;BME280;68835;53.096;17.932;2023-04-24T12:03:24;99588.31;;;23.68;41.00
79370;BME280;68835;53.096;17.932;2023-04-24T12:05:52;99589.93;;;24.44;39.86
79370;BME280;68835;53.096;17.932;2023-04-24T12:08:28;99588.55;;;24.91;38.79
79370;BME280;68835;53.096;17.932;2023-04-24T12:10:56;99590.59;;;24.88;39.12
79370;BME280;68835;53.096;17.932;2023-04-24T12:13:29;99590.42;;;24.36;39.17
79370;BME280;68835;53.096;17.932;2023-04-24T12:15:57;99601.43;;;23.52;40.00
79370;BME280;68835;53.096;17.932;2023-04-24T12:18:25;99604.91;;;22.95;42.00
79370;BME280;68835;53.096;17.932;2023-04-24T12:20:53;99598.77;;;23.08;43.63
79370;BME280;68835;53.096;17.932;2023-04-24T12:23:35;99593.09;;;22.80;43.83
79370;BME280;68835;53.096;17.932;2023-04-24T12:26:05;99589.80;;;22.63;44.45
79370;BME280;68835;53.096;17.932;2023-04-24T12:28:36;99587.42;;;23.07;43.93
79370;BME280;68835;53.096;17.932;2023-04-24T12:31:04;99582.36;;;22.84;43.66
79370;BME280;68835;53.096;17.932;2023-04-24T12:33:34;99576.30;;;22.22;44.13
79370;BME280;68835;53.096;17.932;2023-04-24T12:36:02;99570.23;;;21.64;45.22
79370;BME280;68835;53.096;17.932;2023-04-24T12:38:29;99571.20;;;21.36;45.63
79370;BME280;68835;53.096;17.932;2023-04-24T12:41:11;99568.17;;;21.19;46.61
79370;BME280;68835;53.096;17.932;2023-04-24T12:43:53;99562.80;;;21.29;46.65
79370;BME280;68835;53.096;17.932;2023-04-24T12:46:21;99560.58;;;21.81;46.04
79370;BME280;68835;53.096;17.932;2023-04-24T12:48:48;99568.09;;;22.44;45.32
79370;BME280;68835;53.096;17.932;2023-04-24T12:51:15;99565.96;;;23.57;43.55
79370;BME280;68835;53.096;17.932;2023-04-24T12:53:43;99564.02;;;23.77;42.39
79370;BME280;68835;53.096;17.932;2023-04-24T12:56:10;99569.38;;;23.31;41.80
79370;BME280;68835;53.096;17.932;2023-04-24T12:58:37;99564.98;;;23.00;42.71
79370;BME280;68835;53.096;17.932;2023-04-24T13:01:04;99561.99;;;22.81;42.81
79370;BME280;68835;53.096;17.932;2023-04-24T13:03:32;99561.80;;;22.48;42.69
79370;BME280;68835;53.096;17.932;2023-04-24T13:05:59;99564.68;;;21.97;43.57
79370;BME280;68835;53.096;17.932;2023-04-24T13:08:26;99556.74;;;21.60;44.55
79370;BME280;68835;53.096;17.932;2023-04-24T13:10:53;99563.92;;;21.49;44.69
79370;BME280;68835;53.096;17.932;2023-04-24T13:13:20;99568.36;;;21.35;44.08
79370;BME280;68835;53.096;17.932;2023-04-24T13:15:48;99564.10;;;21.11;44.36
79370;BME280;68835;53.096;17.932;2023-04-24T13:18:15;99559.02;;;21.07;44.85
79370;BME280;68835;53.096;17.932;2023-04-24T13:20:42;99558.59;;;21.08;44.70
79370;BME280;68835;53.096;17.932;2023-04-24T13:23:10;99560.61;;;21.00;44.73